createdAt,value
2019-01-29T00:01:46.087Z,47.63
2019-01-29T00:04:15.627Z,52.20
2019-01-29T00:06:45.159Z,54.73
2019-01-29T00:09:14.719Z,55.37
2019-01-29T00:11:44.236Z,53.33
2019-01-29T00:14:13.764Z,50.03
2019-01-29T00:16:43.249Z,52.07
2019-01-29T00:19:12.751Z,52.67
2019-01-29T00:21:42.242Z,48.00
2019-01-29T00:24:11.754Z,50.77
2019-01-29T00:26:41.260Z,50.40
2019-01-29T00:29:10.801Z,43.17
2019-01-29T00:31:40.321Z,44.17
2019-01-29T00:34:09.915Z,48.40
2019-01-29T00:36:39.445Z,48.53
2019-01-29T00:39:09.762Z,52.43
2019-01-29T00:41:39.292Z,55.87
2019-01-29T00:44:08.795Z,40.33
2019-01-29T00:46:38.289Z,48.93
2019-01-29T00:49:07.812Z,50.87
2019-01-29T00:51:37.341Z,46.73
2019-01-29T00:54:07.108Z,37.83
2019-01-29T00:56:36.630Z,40.27
2019-01-29T00:59:06.164Z,44.47
2019-01-29T01:01:35.679Z,43.20
2019-01-29T01:04:05.803Z,38.80
2019-01-29T01:06:35.322Z,39.60
2019-01-29T01:09:08.366Z,36.60
2019-01-29T01:11:37.869Z,49.87
2019-01-29T01:14:07.513Z,43.00
2019-01-29T01:16:36.987Z,38.93
2019-01-29T01:19:06.458Z,38.13
2019-01-29T01:21:35.951Z,39.30
2019-01-29T01:24:05.558Z,38.80
2019-01-29T01:26:35.046Z,34.17
2019-01-29T01:29:04.655Z,40.57
2019-01-29T01:31:34.168Z,37.30
2019-01-29T01:34:03.667Z,42.30
2019-01-29T01:36:33.188Z,41.13
2019-01-29T01:39:07.634Z,40.53
2019-01-29T01:41:37.162Z,39.57
2019-01-29T01:44:06.631Z,42.80
2019-01-29T01:46:36.122Z,41.53
2019-01-29T01:49:05.704Z,43.27
2019-01-29T01:51:35.163Z,36.33
2019-01-29T01:54:04.768Z,39.03
2019-01-29T01:56:34.320Z,39.30
2019-01-29T01:59:03.813Z,40.63
2019-01-29T02:01:33.358Z,41.60
2019-01-29T02:04:02.862Z,40.97
2019-01-29T02:06:32.337Z,46.73
2019-01-29T02:09:01.818Z,41.97
2019-01-29T02:11:31.326Z,45.97
2019-01-29T02:14:00.847Z,40.60
2019-01-29T02:16:30.347Z,42.50
2019-01-29T02:18:59.831Z,44.50
2019-01-29T02:21:29.307Z,46.80
2019-01-29T02:23:58.810Z,45.50
2019-01-29T02:26:28.296Z,43.73
2019-01-29T02:28:57.774Z,44.53
2019-01-29T02:31:27.340Z,42.07
2019-01-29T02:33:56.835Z,46.27
2019-01-29T02:36:26.319Z,48.40
2019-01-29T02:38:55.833Z,51.23
2019-01-29T02:41:25.346Z,44.40
2019-01-29T02:43:54.865Z,39.40
2019-01-29T02:46:24.442Z,49.47
2019-01-29T02:48:53.945Z,44.13
2019-01-29T02:51:23.440Z,39.63
2019-01-29T02:53:52.907Z,36.93
2019-01-29T02:56:22.416Z,39.13
2019-01-29T02:58:51.904Z,37.23
2019-01-29T03:01:21.415Z,37.60
2019-01-29T03:03:50.922Z,37.53
2019-01-29T03:06:20.482Z,40.23
2019-01-29T03:08:49.983Z,38.07
2019-01-29T03:11:19.606Z,37.47
2019-01-29T03:13:49.160Z,37.83
2019-01-29T03:16:19.016Z,33.83
2019-01-29T03:18:48.536Z,33.43
2019-01-29T03:21:18.023Z,31.77
2019-01-29T03:23:47.516Z,35.60
2019-01-29T03:26:16.982Z,38.37
2019-01-29T03:28:46.543Z,38.60
2019-01-29T03:31:16.059Z,38.23
2019-01-29T03:33:45.553Z,34.27
2019-01-29T03:36:15.100Z,36.57
2019-01-29T03:38:44.597Z,37.97
2019-01-29T03:41:14.126Z,37.97
2019-01-29T03:43:43.620Z,36.27
2019-01-29T03:46:13.150Z,35.47
2019-01-29T03:48:42.652Z,40.23
2019-01-29T03:51:12.425Z,36.83
2019-01-29T03:53:42.071Z,37.90
2019-01-29T03:56:11.542Z,33.97
2019-01-29T03:58:41.052Z,34.97
2019-01-29T04:01:10.660Z,36.10
2019-01-29T04:03:40.176Z,32.67
2019-01-29T04:06:09.755Z,33.10
2019-01-29T04:08:39.252Z,34.00
2019-01-29T04:11:08.768Z,33.97
2019-01-29T04:13:38.279Z,37.60
2019-01-29T04:16:07.921Z,35.93
2019-01-29T04:18:37.448Z,42.93
2019-01-29T04:21:06.993Z,39.40
2019-01-29T04:23:36.526Z,38.53
2019-01-29T04:26:06.062Z,39.40
2019-01-29T04:28:35.534Z,43.93
2019-01-29T04:31:05.040Z,42.80
2019-01-29T04:33:34.513Z,40.07
2019-01-29T04:36:04.107Z,74.53
2019-01-29T04:38:33.632Z,70.67
2019-01-29T04:41:03.760Z,46.57
2019-01-29T04:43:33.259Z,46.00
2019-01-29T04:46:02.809Z,46.23
2019-01-29T04:48:32.330Z,46.23
2019-01-29T04:51:01.834Z,34.93
2019-01-29T04:53:31.715Z,37.00
2019-01-29T04:56:01.241Z,32.90
2019-01-29T04:58:30.748Z,25.57
2019-01-29T05:01:00.253Z,26.20
2019-01-29T05:03:29.782Z,30.37
2019-01-29T05:05:59.322Z,28.87
2019-01-29T05:08:28.893Z,28.10
2019-01-29T05:10:58.388Z,25.63
2019-01-29T05:13:27.891Z,23.27
2019-01-29T05:15:57.417Z,26.27
2019-01-29T05:18:26.885Z,28.63
2019-01-29T05:20:56.364Z,31.67
2019-01-29T05:23:25.921Z,26.90
2019-01-29T05:25:55.454Z,31.80
2019-01-29T05:28:24.945Z,27.50
2019-01-29T05:30:54.537Z,29.07
2019-01-29T05:33:24.061Z,30.97
2019-01-29T05:35:53.574Z,31.57
2019-01-29T05:38:23.077Z,26.73
2019-01-29T05:40:52.580Z,30.60
2019-01-29T05:43:22.128Z,27.93
2019-01-29T05:45:51.604Z,25.43
2019-01-29T05:48:21.075Z,23.40
2019-01-29T05:50:50.579Z,27.13
2019-01-29T05:53:20.076Z,28.67
2019-01-29T05:55:49.620Z,31.83
2019-01-29T05:58:19.185Z,26.13
2019-01-29T06:00:48.712Z,27.30
2019-01-29T06:03:18.227Z,34.07
2019-01-29T06:05:47.730Z,37.10
2019-01-29T06:08:17.305Z,33.03
2019-01-29T06:10:46.804Z,29.53
2019-01-29T06:13:16.619Z,37.10
2019-01-29T06:15:46.133Z,35.90
2019-01-29T06:18:15.744Z,34.40
2019-01-29T06:20:50.215Z,36.20
2019-01-29T06:23:19.796Z,36.80
2019-01-29T06:25:49.335Z,35.47
2019-01-29T06:28:18.868Z,36.23
2019-01-29T06:30:48.396Z,37.03
2019-01-29T06:33:17.912Z,35.77
2019-01-29T06:35:47.493Z,35.33
2019-01-29T06:38:17.017Z,35.47
2019-01-29T06:40:46.611Z,34.70
2019-01-29T06:43:16.088Z,33.50
2019-01-29T06:45:46.616Z,35.83
2019-01-29T06:48:16.727Z,35.87
2019-01-29T06:50:46.203Z,34.53
2019-01-29T06:53:15.736Z,36.43
2019-01-29T06:55:45.288Z,36.93
2019-01-29T06:58:16.506Z,34.67
2019-01-29T07:00:46.048Z,35.17
2019-01-29T07:03:18.547Z,36.40
2019-01-29T07:05:48.027Z,34.33
2019-01-29T07:08:17.527Z,33.50
2019-01-29T07:10:47.043Z,29.23
2019-01-29T07:13:16.562Z,30.50
2019-01-29T07:16:20.478Z,29.27
2019-01-29T07:19:08.960Z,36.07
2019-01-29T07:21:38.479Z,33.47
2019-01-29T07:24:08.146Z,30.50
2019-01-29T07:26:37.655Z,32.00
2019-01-29T07:29:07.136Z,34.87
2019-01-29T07:31:36.648Z,38.73
2019-01-29T07:34:06.174Z,38.83
2019-01-29T07:36:35.741Z,41.13
2019-01-29T07:39:08.755Z,35.80
2019-01-29T07:41:38.234Z,44.97
2019-01-29T07:44:07.733Z,44.57
2019-01-29T07:46:37.269Z,38.87
2019-01-29T07:49:06.796Z,39.20
2019-01-29T07:51:36.455Z,32.80
2019-01-29T07:54:06.101Z,42.40
2019-01-29T07:56:35.706Z,38.00
2019-01-29T07:59:05.332Z,36.33
2019-01-29T08:01:35.337Z,35.17
2019-01-29T08:04:05.233Z,34.30
2019-01-29T08:06:34.764Z,34.17
2019-01-29T08:09:06.919Z,38.67
2019-01-29T08:11:36.483Z,33.50
2019-01-29T08:14:06.203Z,32.93
2019-01-29T08:16:35.731Z,32.13
2019-01-29T08:19:05.734Z,34.00
2019-01-29T08:21:35.238Z,27.83
2019-01-29T08:24:04.790Z,30.97
2019-01-29T08:26:34.573Z,32.27
2019-01-29T08:29:04.903Z,31.50
2019-01-29T08:31:34.462Z,31.03
2019-01-29T08:34:04.385Z,33.67
2019-01-29T08:36:33.868Z,33.60
2019-01-29T08:39:05.037Z,31.63
2019-01-29T08:41:34.632Z,34.50
2019-01-29T08:44:04.292Z,32.40
2019-01-29T08:46:33.817Z,33.50
2019-01-29T08:49:03.407Z,32.53
2019-01-29T08:51:32.958Z,64.93
2019-01-29T08:54:02.501Z,85.20
2019-01-29T08:56:32.179Z,86.83
2019-01-29T08:59:01.669Z,106.47
2019-01-29T09:01:31.280Z,112.13
2019-01-29T09:04:00.848Z,113.67
2019-01-29T09:06:30.512Z,113.47
2019-01-29T09:08:59.977Z,112.23
2019-01-29T09:11:29.563Z,123.50
2019-01-29T09:13:59.065Z,119.70
2019-01-29T09:16:28.600Z,122.10
2019-01-29T09:18:58.129Z,125.93
2019-01-29T09:21:27.876Z,135.17
2019-01-29T09:23:57.532Z,135.17
2019-01-29T09:26:27.073Z,130.80
2019-01-29T09:28:56.568Z,133.97
2019-01-29T09:31:26.147Z,147.77
2019-01-29T09:33:55.673Z,100.60
2019-01-29T09:36:25.231Z,127.90
2019-01-29T09:38:54.857Z,162.10
2019-01-29T09:41:24.387Z,168.27
2019-01-29T09:43:53.934Z,150.10
2019-01-29T09:46:23.466Z,159.00
2019-01-29T09:48:53.015Z,163.43
2019-01-29T09:51:22.607Z,154.37
2019-01-29T09:53:52.457Z,144.70
2019-01-29T09:56:22.046Z,147.90
2019-01-29T09:58:51.549Z,152.50
2019-01-29T10:01:21.146Z,154.43
2019-01-29T10:03:50.693Z,153.30
2019-01-29T10:06:20.323Z,144.30
2019-01-29T10:08:50.016Z,133.90
2019-01-29T10:11:19.723Z,137.97
2019-01-29T10:13:49.264Z,131.27
2019-01-29T10:16:18.804Z,136.53
2019-01-29T10:18:51.374Z,125.70
2019-01-29T10:21:21.080Z,145.77
2019-01-29T10:23:50.620Z,140.83
2019-01-29T10:26:20.333Z,127.40
2019-01-29T10:28:49.938Z,129.63
2019-01-29T10:31:19.453Z,124.17
2019-01-29T10:33:48.964Z,128.47
2019-01-29T10:36:18.533Z,129.40
2019-01-29T10:38:48.080Z,125.03
2019-01-29T10:41:17.629Z,114.00
2019-01-29T10:43:47.179Z,121.50
2019-01-29T10:46:16.770Z,123.90
2019-01-29T10:48:46.372Z,106.50
2019-01-29T10:51:16.088Z,106.20
2019-01-29T10:53:45.894Z,106.67
2019-01-29T10:56:15.425Z,98.90
2019-01-29T10:58:44.935Z,92.27
2019-01-29T11:01:14.687Z,90.80
2019-01-29T11:03:44.370Z,95.40
2019-01-29T11:06:13.905Z,88.23
2019-01-29T11:08:43.525Z,95.73
2019-01-29T11:11:13.020Z,83.93
2019-01-29T11:13:42.509Z,95.70
2019-01-29T11:16:12.378Z,91.37
2019-01-29T11:18:41.961Z,96.17
2019-01-29T11:21:11.474Z,92.93
2019-01-29T11:23:40.990Z,91.23
2019-01-29T11:26:10.627Z,94.57
2019-01-29T11:28:40.175Z,84.77
2019-01-29T11:31:09.709Z,78.50
2019-01-29T11:33:39.280Z,83.40
2019-01-29T11:36:08.808Z,86.73
2019-01-29T11:38:38.355Z,69.57
2019-01-29T11:41:08.031Z,74.87
2019-01-29T11:43:37.544Z,84.67
2019-01-29T11:46:07.299Z,96.23
2019-01-29T11:48:36.828Z,106.13
2019-01-29T11:51:06.387Z,116.40
2019-01-29T11:53:35.915Z,102.30
2019-01-29T11:56:05.992Z,99.53
2019-01-29T11:58:35.548Z,93.60
2019-01-29T12:01:07.387Z,92.30
2019-01-29T12:03:36.931Z,92.67
2019-01-29T12:06:06.766Z,90.73
2019-01-29T12:08:36.615Z,91.77
2019-01-29T12:11:06.391Z,98.63
2019-01-29T12:13:36.085Z,97.47
2019-01-29T12:16:10.333Z,109.33
2019-01-29T12:18:40.006Z,103.27
2019-01-29T12:21:09.536Z,111.13
2019-01-29T12:23:42.591Z,103.83
2019-01-29T12:26:13.262Z,105.97
2019-01-29T12:28:43.444Z,88.80
2019-01-29T12:31:13.014Z,81.80
2019-01-29T12:33:42.598Z,87.53
2019-01-29T12:36:12.112Z,86.27
2019-01-29T12:38:41.677Z,87.40
2019-01-29T12:41:11.178Z,93.23
2019-01-29T12:43:40.677Z,87.90
2019-01-29T12:46:10.228Z,86.73
2019-01-29T12:48:39.758Z,85.77
2019-01-29T12:51:16.734Z,108.33
2019-01-29T12:53:46.764Z,85.93
2019-01-29T12:56:21.382Z,83.73
2019-01-29T12:58:47.587Z,84.33
2019-01-29T13:01:17.108Z,82.70
2019-01-29T13:03:46.645Z,85.63
2019-01-29T13:06:16.126Z,92.20
2019-01-29T13:08:45.675Z,86.53
2019-01-29T13:11:15.234Z,87.20
2019-01-29T13:13:44.840Z,93.00
2019-01-29T13:16:14.399Z,90.67
2019-01-29T13:18:43.957Z,95.33
2019-01-29T13:21:15.951Z,93.10
2019-01-29T13:23:45.502Z,92.70
2019-01-29T13:26:15.228Z,92.93
2019-01-29T13:28:45.158Z,85.63
2019-01-29T13:31:14.689Z,87.07
2019-01-29T13:33:44.129Z,92.37
2019-01-29T13:36:13.663Z,84.33
2019-01-29T13:38:43.163Z,91.07
2019-01-29T13:41:12.683Z,92.90
2019-01-29T13:43:42.316Z,89.83
2019-01-29T13:46:11.851Z,94.23
2019-01-29T13:48:41.598Z,91.53
2019-01-29T13:51:11.239Z,93.40
2019-01-29T13:53:41.085Z,90.37
2019-01-29T13:56:10.902Z,94.30
2019-01-29T13:58:40.459Z,99.30
2019-01-29T14:01:10.158Z,90.77
2019-01-29T14:03:39.756Z,95.07
2019-01-29T14:06:09.324Z,88.47
2019-01-29T14:08:38.889Z,92.60
2019-01-29T14:11:08.459Z,90.50
2019-01-29T14:13:38.038Z,94.20
2019-01-29T14:16:10.854Z,90.47
2019-01-29T14:18:40.383Z,93.90
2019-01-29T14:21:09.859Z,100.70
2019-01-29T14:23:39.413Z,94.63
2019-01-29T14:26:08.927Z,89.90
2019-01-29T14:28:38.522Z,94.63
2019-01-29T14:31:08.087Z,102.63
2019-01-29T14:33:37.683Z,98.50
2019-01-29T14:36:16.229Z,99.17
2019-01-29T14:39:05.983Z,91.00
2019-01-29T14:41:36.152Z,97.87
2019-01-29T14:44:08.256Z,92.97
2019-01-29T14:46:38.137Z,111.80
2019-01-29T14:49:07.644Z,100.27
2019-01-29T14:51:37.339Z,105.53
2019-01-29T14:54:06.961Z,94.97
2019-01-29T14:56:36.517Z,105.23
2019-01-29T14:59:06.127Z,105.00
2019-01-29T15:01:35.890Z,103.23
2019-01-29T15:04:05.544Z,98.83
2019-01-29T15:06:35.797Z,101.13
2019-01-29T15:09:11.071Z,105.73
2019-01-29T15:11:40.660Z,98.40
2019-01-29T15:14:10.219Z,107.00
2019-01-29T15:17:04.730Z,104.43
2019-01-29T15:19:35.081Z,102.50
2019-01-29T15:22:08.958Z,115.43
2019-01-29T15:24:41.592Z,109.70
2019-01-29T15:27:11.236Z,103.13
2019-01-29T15:29:40.776Z,106.17
2019-01-29T15:32:10.406Z,101.90
2019-01-29T15:34:43.083Z,100.93
2019-01-29T15:37:12.635Z,107.87
2019-01-29T15:39:42.173Z,105.47
2019-01-29T15:42:11.731Z,109.87
2019-01-29T15:44:41.215Z,122.60
2019-01-29T15:47:10.831Z,104.70
2019-01-29T15:49:40.362Z,113.83
2019-01-29T15:52:09.938Z,100.10
2019-01-29T15:54:39.537Z,105.93
2019-01-29T15:57:14.074Z,104.03
2019-01-29T15:59:43.117Z,106.47
2019-01-29T16:02:11.644Z,110.23
2019-01-29T16:04:41.168Z,147.97
2019-01-29T16:07:10.710Z,167.40
2019-01-29T16:09:40.232Z,173.03
2019-01-29T16:12:09.842Z,204.00
2019-01-29T16:14:39.835Z,216.27
2019-01-29T16:17:09.429Z,214.87
2019-01-29T16:19:38.940Z,227.77
2019-01-29T16:22:08.567Z,226.73
2019-01-29T16:24:38.204Z,234.40
2019-01-29T16:27:07.713Z,221.80
2019-01-29T16:29:37.263Z,197.43
2019-01-29T16:32:06.822Z,208.23
2019-01-29T16:34:36.388Z,212.17
2019-01-29T16:37:05.949Z,219.13
2019-01-29T16:39:35.536Z,205.33
2019-01-29T16:42:05.223Z,192.70
2019-01-29T16:44:34.729Z,203.53
2019-01-29T16:47:04.245Z,176.83
2019-01-29T16:49:33.897Z,159.80
2019-01-29T16:52:03.457Z,180.53
2019-01-29T16:54:33.032Z,170.77
2019-01-29T16:57:02.655Z,156.80
2019-01-29T16:59:32.279Z,146.07
2019-01-29T17:02:01.850Z,149.90
2019-01-29T17:04:31.406Z,155.30
2019-01-29T17:07:00.940Z,168.50
2019-01-29T17:09:30.491Z,170.20
2019-01-29T17:12:00.097Z,171.20
2019-01-29T17:14:29.675Z,169.10
2019-01-29T17:16:59.245Z,188.83
2019-01-29T17:19:28.784Z,195.53
2019-01-29T17:21:58.424Z,156.43
2019-01-29T17:24:27.932Z,150.73
2019-01-29T17:27:00.265Z,145.23
2019-01-29T17:29:29.845Z,135.70
2019-01-29T17:31:59.365Z,134.83
2019-01-29T17:34:28.998Z,120.63
2019-01-29T17:36:58.522Z,145.13
2019-01-29T17:39:28.083Z,150.73
2019-01-29T17:41:57.625Z,163.10
2019-01-29T17:44:27.160Z,157.20
2019-01-29T17:46:56.686Z,168.50
2019-01-29T17:49:26.203Z,198.03
2019-01-29T17:51:55.779Z,183.93
2019-01-29T17:54:25.302Z,198.33
2019-01-29T17:56:54.786Z,192.03
2019-01-29T17:59:24.315Z,167.17
2019-01-29T18:01:53.884Z,146.30
2019-01-29T18:04:23.438Z,153.00
2019-01-29T18:06:53.147Z,169.00
2019-01-29T18:09:23.155Z,158.60
2019-01-29T18:11:52.736Z,161.30
2019-01-29T18:14:22.311Z,141.47
2019-01-29T18:16:53.312Z,113.10
2019-01-29T18:19:23.318Z,123.93
2019-01-29T18:21:57.000Z,134.27
2019-01-29T18:24:25.458Z,126.10
2019-01-29T18:26:55.338Z,126.60
2019-01-29T18:29:25.026Z,116.27
2019-01-29T18:31:55.012Z,117.23
2019-01-29T18:34:24.625Z,130.10
2019-01-29T18:36:54.516Z,117.20
2019-01-29T18:39:24.199Z,121.20
2019-01-29T18:41:54.225Z,140.57
2019-01-29T18:44:24.734Z,141.80
2019-01-29T18:46:54.294Z,129.57
2019-01-29T18:49:26.911Z,163.13
2019-01-29T18:51:56.519Z,157.83
2019-01-29T18:54:26.148Z,153.60
2019-01-29T18:56:55.962Z,156.50
2019-01-29T18:59:25.517Z,163.10
2019-01-29T19:01:55.037Z,136.87
2019-01-29T19:04:24.569Z,135.90
2019-01-29T19:06:54.126Z,148.93
2019-01-29T19:09:23.655Z,156.13
2019-01-29T19:11:53.196Z,149.17
2019-01-29T19:14:22.942Z,143.07
2019-01-29T19:16:52.536Z,137.03
2019-01-29T19:19:24.790Z,140.67
2019-01-29T19:21:54.476Z,143.30
2019-01-29T19:24:24.455Z,159.20
2019-01-29T19:26:55.639Z,157.83
2019-01-29T19:29:27.807Z,136.20
2019-01-29T19:31:59.548Z,144.03
2019-01-29T19:34:29.051Z,161.00
2019-01-29T19:37:00.353Z,128.33
2019-01-29T19:39:30.290Z,128.77
2019-01-29T19:42:00.060Z,230.37
2019-01-29T19:44:29.659Z,138.90
2019-01-29T19:46:59.290Z,149.10
2019-01-29T19:49:28.985Z,133.40
2019-01-29T19:51:58.526Z,131.60
2019-01-29T19:54:28.057Z,126.30
2019-01-29T19:56:57.632Z,145.97
2019-01-29T19:59:27.655Z,146.43
2019-01-29T20:01:57.868Z,119.83
2019-01-29T20:04:27.609Z,127.57
2019-01-29T20:06:57.357Z,141.60
2019-01-29T20:09:27.470Z,143.67
2019-01-29T20:11:57.076Z,127.43
2019-01-29T20:14:26.706Z,118.43
2019-01-29T20:16:57.650Z,118.60
2019-01-29T20:19:27.367Z,124.33
2019-01-29T20:21:57.066Z,119.57
2019-01-29T20:24:26.870Z,106.33
2019-01-29T20:26:56.386Z,114.50
2019-01-29T20:29:25.947Z,111.57
2019-01-29T20:31:55.704Z,113.63
2019-01-29T20:34:25.348Z,107.37
2019-01-29T20:36:55.408Z,107.47
2019-01-29T20:39:34.469Z,113.77
2019-01-29T20:41:56.364Z,122.00
2019-01-29T20:44:25.998Z,121.17
2019-01-29T20:46:55.518Z,108.93
2019-01-29T20:49:25.044Z,118.50
2019-01-29T20:51:54.752Z,113.27
2019-01-29T20:54:24.303Z,123.33
2019-01-29T20:56:53.860Z,121.57
2019-01-29T20:59:23.424Z,117.90
2019-01-29T21:01:52.942Z,114.20
2019-01-29T21:04:22.548Z,115.77
2019-01-29T21:06:52.035Z,127.10
2019-01-29T21:09:21.571Z,111.93
2019-01-29T21:11:51.104Z,110.70
2019-01-29T21:14:20.624Z,105.10
2019-01-29T21:21:23.278Z,116.97
2019-01-29T21:23:52.781Z,124.17
2019-01-29T21:26:22.337Z,119.87
2019-01-29T21:28:51.831Z,120.73
2019-01-29T21:31:21.344Z,119.90
2019-01-29T21:33:50.874Z,119.87
2019-01-29T21:36:20.388Z,106.17
2019-01-29T21:38:49.976Z,110.77
2019-01-29T21:41:19.611Z,115.17
2019-01-29T21:43:49.080Z,112.90
2019-01-29T21:46:18.587Z,102.63
2019-01-29T21:48:48.114Z,137.50
2019-01-29T21:51:17.608Z,159.27
2019-01-29T21:53:47.120Z,156.83
2019-01-29T21:56:17.106Z,234.53
2019-01-29T21:58:46.635Z,240.03
2019-01-29T22:01:18.413Z,245.03
2019-01-29T22:03:47.918Z,269.47
2019-01-29T22:06:17.537Z,227.20
2019-01-29T22:08:47.070Z,283.20
2019-01-29T22:11:16.605Z,296.53
2019-01-29T22:13:46.142Z,291.57
2019-01-29T22:16:15.652Z,283.37
2019-01-29T22:18:45.144Z,231.53
2019-01-29T22:21:14.644Z,232.17
2019-01-29T22:23:44.141Z,215.77
2019-01-29T22:26:13.644Z,222.83
2019-01-29T22:28:43.186Z,196.20
2019-01-29T22:31:12.709Z,204.03
2019-01-29T22:33:42.226Z,204.77
2019-01-29T22:36:11.747Z,236.87
2019-01-29T22:38:41.248Z,257.63
2019-01-29T22:41:10.818Z,211.20
2019-01-29T22:43:40.348Z,237.10
2019-01-29T22:46:10.268Z,215.27
2019-01-29T22:48:39.837Z,222.80
2019-01-29T22:51:09.357Z,205.83
2019-01-29T22:53:38.850Z,210.60
2019-01-29T22:56:08.347Z,214.13
2019-01-29T22:58:37.881Z,213.70
2019-01-29T23:01:22.445Z,185.57
2019-01-29T23:04:19.264Z,188.73
2019-01-29T23:07:21.898Z,182.00
2019-01-29T23:09:51.427Z,297.43
2019-01-29T23:12:20.976Z,339.23
2019-01-29T23:14:50.550Z,331.67
2019-01-29T23:17:20.052Z,317.07
2019-01-29T23:19:50.657Z,333.80
2019-01-29T23:22:20.154Z,285.43
2019-01-29T23:24:49.835Z,192.13
2019-01-29T23:27:19.316Z,262.17
2019-01-29T23:29:48.812Z,351.40
2019-01-29T23:32:18.308Z,165.17
2019-01-29T23:34:47.957Z,229.73
2019-01-29T23:37:17.486Z,219.40
2019-01-29T23:39:47.020Z,281.67
2019-01-29T23:42:16.541Z,225.30
2019-01-29T23:44:46.083Z,190.10
2019-01-29T23:47:15.613Z,153.37
2019-01-29T23:49:45.237Z,184.73
2019-01-29T23:52:14.770Z,189.47
2019-01-29T23:54:44.253Z,142.33
2019-01-29T23:57:13.757Z,223.47
2019-01-29T23:59:53.331Z,170.00
